Relevés horaires Matro (Suisse)


Relevés horaires à Matro - Lundi 12 Juill. 2021
Heure UTC1 Température [°C] Vent [km/h] Hum. [%] Pres.4 [hPa] Visi. [Km] Nébu. [octa] Préc.5 [mm] Cond.
2m. Res. Ros. Dir.2 Vit. Moy. Raf.3
23:00 10.8 5.9 10.7 SSE 68.5 -- 92.6 99 850(-1.9/3h) -- -- -- --
22:00 11.0 6.9 10.8 SSE 50.0 -- 75.9 99 850(-0.9/3h) -- -- -- --
21:00 10.6 6.2 10.6 SSE 51.9 -- 75.9 100 850(-1.1/3h) -- -- -- --
20:00 10.7 6.1 10.6 SE 57.4 -- 75.9 99 850(-1.1/3h) -- -- -- --
19:00 11.1 6.7 9.2 SE 57.4 -- 63.0 88 850(-1.5/3h) -- -- -- --
18:00 10.7 6.8 10.4 SE 42.6 -- 51.9 98 850(-1.2/3h) -- -- -- --
17:00 10.9 7 9.9 SSE 42.6 -- 51.9 94 850(-1.1/3h) -- -- -- --
16:00 10.9 7.4 9.4 SSE 35.2 -- 44.4 90 850(-0.9/3h) -- -- -- --
15:00 10.9 7.9 9.1 SSE 27.8 -- 37.0 89 850(-0.8/3h) -- -- -- --
14:00 11.1 8.6 8.9 S 22.2 -- 33.3 86 850(-0.5/3h) -- -- -- --
13:00 10.9 8.8 9.1 SSE 16.7 -- 31.5 89 850(-0.7/3h) -- -- -- --
12:00 10.3 7.7 8.2 S 20.4 -- 38.9 87 850(0.1/3h) -- -- -- --
11:00 11.1 8.9 7.8 SSE 18.5 -- 29.6 80 850(0.5/3h) -- -- -- --
10:00 9.8 6.9 6.6 SSE 22.2 -- 38.9 80 850(1.2/3h) -- -- -- --
09:00 11.0 8.6 5.6 SSE 20.4 -- 27.8 69 850(0.5/3h) -- -- -- --
08:00 10.7 9.3 2.3 SSE 11.1 -- 18.5 56 850(-0.5/3h) -- -- -- --
07:00 9.7 8.1 3.7 SSE 11.1 -- 14.8 66 850(-0.7/3h) -- -- -- --
06:00 10.2 8.4 3.2 ESE 13.0 -- 27.8 62 850(-0.8/3h) -- -- -- --
05:00 9.5 6.7 4.6 SSE 20.4 -- 27.8 71 850(-0.1/3h) -- -- -- --
04:00 9.8 7.1 5.3 SSE 20.4 -- 22.2 74 850(0.0/3h) -- -- -- --
03:00 10.3 7.9 4.4 SE 18.5 -- 20.4 67 850(-0.1/3h) -- -- -- --
02:00 10.4 8.4 4.0 SE 14.8 -- 16.7 64 850(-0.3/3h) -- -- -- --
01:00 10.6 9.5 4.3 E 9.3 -- 13.0 65 850(-0.5/3h) -- -- -- --
00:00 10.3 8.5 5.4 E 13.0 -- 27.8 72 850(-0.2/3h) -- -- -- --

1 Coordinated Universal Time. Actuellement il est 15:00 locale et 13:00 UTC.

2 Le vent souffle depuis la direction indiquée vers la direction oposée.

3 Les rafales max. sont disponible 40 min après l'heure du relevé.

4 Pour les stations d'altitude (plus de 600m) le géopotentiel du niveau le plus proche de la pression obligatoire est indiqué.

5 Les stations disposant d'un diffuseur peuvent indiquer "trace". Cela signifie que des précipitations ont touchés le sol mais que la quantité est inférieure à 0.1 mm.

Copyright

Les données affichées sur cette page sont la propriété exclusive de Météo Suisse.

Récapitulatif de la journée
Température [°C] Vent [km/h] Ensoleillement4 [h] Precipitations totale5 [mm] Pression [Hpa]
Min1 Max.2 Moy.3 Max. Min Max.
9.5 12.1 0 92.6 2 h 24 min 0 850.0 850.0

1 Température minimale relevée entre 18:00 UTC la veille et 18:00 UTC le jour donné.

2 Température maximale relevée entre 06:00 UTC le jour donné et 06:00 UTC le lendemain.

3 Vent moyen de la journée basé sur les relevés horaires.

4 Ensoleillement en heures relevé entre 06:00 UTC la veille et 06:00 UTC le jour donné.

5 Précipitations totales tombées entre 06:00 UTC la jour donné et 06:00 UTC le lendemain.

Graphiques horaires